Time,TemperatureF,DewpointF,PressureIn,WindDirection,WindDirectionDegrees,WindSpeedMPH,WindSpeedGustMPH,Humidity,HourlyPrecipIn,Conditions,Clouds,dailyrainin,SoftwareType,DateUTC
2013-06-25 01:44:00,78.0,74.0,30.11,ESE,112,0.0,2.0,88,0.00,,,0.54,,2013-06-25 05:44:00,
2013-06-25 01:52:00,78.0,74.0,30.11,ESE,119,0.0,3.0,88,0.00,,,0.54,,2013-06-25 05:52:00,
2013-06-25 02:01:00,78.0,74.0,30.09,SE,132,0.0,3.0,88,0.00,,,0.54,,2013-06-25 06:01:00,
2013-06-25 02:43:00,77.0,73.0,30.09,SE,134,0.0,0.0,88,0.00,,,0.54,,2013-06-25 06:43:00,
2013-06-25 02:52:00,78.0,74.0,30.08,SSE,155,0.0,3.0,89,0.00,,,0.54,,2013-06-25 06:52:00,
2013-06-25 03:02:00,78.0,74.0,30.07,SE,130,0.0,0.0,89,0.00,,,0.54,,2013-06-25 07:02:00,
2013-06-25 03:33:00,77.0,74.0,30.07,ENE,73,0.0,0.0,89,0.00,,,0.54,,2013-06-25 07:33:00,
2013-06-25 03:52:00,77.0,74.0,30.07,ESE,112,0.0,0.0,89,0.00,,,0.54,,2013-06-25 07:52:00,
2013-06-25 04:53:00,77.0,74.0,30.05,ESE,104,0.0,0.0,90,0.00,,,0.54,,2013-06-25 08:53:00,
2013-06-25 05:43:00,76.0,73.0,30.06,SE,137,0.0,0.0,91,0.00,,,0.54,,2013-06-25 09:43:00,
2013-06-25 06:42:00,75.0,73.0,30.07,SE,137,0.0,0.0,92,0.00,,,0.53,,2013-06-25 10:42:00,
2013-06-25 06:52:00,75.0,73.0,30.07,SE,137,0.0,0.0,92,0.00,,,0.53,,2013-06-25 10:52:00,
2013-06-25 10:01:00,84.0,76.0,30.10,South,182,1.0,5.0,77,0.00,,,0.53,,2013-06-25 14:01:00,
2013-06-25 10:34:00,85.0,75.0,30.11,ESE,112,3.0,7.0,71,0.00,,,0.53,,2013-06-25 14:34:00,
2013-06-25 11:44:00,88.0,76.0,30.11,NNE,16,3.0,6.0,68,0.00,,,0.53,,2013-06-25 15:44:00,
2013-06-25 13:44:00,91.0,75.0,30.08,NE,42,1.0,8.0,60,0.00,,,0.53,,2013-06-25 17:44:00,
2013-06-25 13:53:00,91.0,76.0,30.07,South,184,1.0,5.0,61,0.00,,,0.53,,2013-06-25 17:53:00,
2013-06-25 15:44:00,94.0,73.0,30.03,NNE,32,5.0,8.0,51,0.00,,,0.53,,2013-06-25 19:44:00,
2013-06-25 17:43:00,96.0,71.0,29.98,North,9,1.0,4.0,45,0.00,,,0.53,,2013-06-25 21:43:00,
2013-06-25 17:53:00,95.0,72.0,29.98,SE,137,4.0,10.0,48,0.00,,,0.53,,2013-06-25 21:53:00,
2013-06-25 19:34:00,88.0,73.0,30.01,South,169,3.0,9.0,61,0.00,,,0.53,,2013-06-25 23:34:00,
2013-06-25 19:44:00,88.0,73.0,30.00,SW,229,3.0,5.0,61,0.00,,,0.53,,2013-06-25 23:44:00,
2013-06-25 19:52:00,88.0,75.0,30.01,SSW,213,1.0,5.0,65,0.00,,,0.53,,2013-06-25 23:52:00,
2013-06-25 20:02:00,88.0,74.0,30.00,SSW,211,1.0,4.0,64,0.00,,,0.53,,2013-06-26 00:02:00,
2013-06-25 20:11:00,87.0,76.0,30.00,West,270,3.0,5.0,69,0.00,,,0.53,,2013-06-26 00:11:00,
2013-06-25 20:22:00,87.0,77.0,30.01,SW,231,0.0,4.0,72,0.00,,,0.53,,2013-06-26 00:22:00,
2013-06-25 20:33:00,86.0,72.0,30.02,SSE,157,2.0,4.0,63,0.00,,,0.53,,2013-06-26 00:33:00,
2013-06-25 20:42:00,86.0,72.0,30.02,SW,220,3.0,9.0,64,0.00,,,0.53,,2013-06-26 00:42:00,
2013-06-25 20:52:00,86.0,73.0,30.02,SSW,196,4.0,9.0,65,0.00,,,0.53,,2013-06-26 00:52:00,
2013-06-25 21:01:00,84.0,73.0,30.02,SSW,192,5.0,8.0,70,0.00,,,0.00,,2013-06-26 01:01:00,
2013-06-25 21:11:00,81.0,72.0,30.03,SSW,213,6.0,16.0,74,0.00,,,0.00,,2013-06-26 01:11:00,
2013-06-25 21:22:00,80.0,72.0,30.03,South,191,5.0,11.0,77,0.00,,,0.00,,2013-06-26 01:22:00,
2013-06-25 21:33:00,79.0,72.0,30.04,SSW,210,3.0,11.0,80,0.00,,,0.00,,2013-06-26 01:33:00,
2013-06-25 22:02:00,79.0,72.0,30.05,West,277,3.0,5.0,79,0.00,,,0.00,,2013-06-26 02:02:00,
2013-06-25 22:43:00,78.0,72.0,30.05,WNW,287,0.0,1.0,83,0.00,,,0.00,,2013-06-26 02:43:00,
2013-06-25 23:02:00,78.0,72.0,30.04,SE,126,0.0,2.0,83,0.00,,,0.00,,2013-06-26 03:02:00,
2013-06-25 23:43:00,78.0,74.0,30.04,SE,126,0.0,0.0,87,0.00,,,0.00,,2013-06-26 03:43:00,